createdAt,value
2022-09-17T00:01:13.031Z,101285.81
2022-09-17T00:03:40.747Z,101298.50
2022-09-17T00:06:10.295Z,101294.16
2022-09-17T00:08:40.119Z,101296.88
2022-09-17T00:11:10.737Z,101312.28
2022-09-17T00:13:38.897Z,101299.22
2022-09-17T00:16:07.165Z,101302.75
2022-09-17T00:18:36.815Z,101311.13
2022-09-17T00:21:05.061Z,101316.41
2022-09-17T00:23:32.696Z,101319.22
2022-09-17T00:26:00.343Z,101323.22
2022-09-17T00:28:29.374Z,101324.88
2022-09-17T00:30:57.089Z,101322.41
2022-09-17T00:33:24.742Z,101331.34
2022-09-17T00:35:59.977Z,101325.94
2022-09-17T00:38:27.816Z,101320.53
2022-09-17T00:40:55.492Z,101320.53
2022-09-17T00:43:42.594Z,101316.16
2022-09-17T00:46:25.205Z,101322.41
2022-09-17T00:48:54.741Z,101320.75
2022-09-17T00:51:28.665Z,101322.88
2022-09-17T00:53:56.979Z,101327.94
2022-09-17T00:56:27.614Z,101325.25
2022-09-17T00:58:57.126Z,101326.06
2022-09-17T01:01:25.110Z,101328.75
2022-09-17T01:03:52.822Z,101320.66
2022-09-17T01:06:29.508Z,101319.00
2022-09-17T01:09:04.456Z,101330.41
2022-09-17T01:11:51.267Z,101324.41
2022-09-17T01:14:40.057Z,101330.66
2022-09-17T01:17:19.597Z,101330.66
2022-09-17T01:20:31.637Z,101333.59
2022-09-17T01:23:27.534Z,101341.94
2022-09-17T01:26:12.806Z,101338.41
2022-09-17T01:28:47.522Z,101334.88
2022-09-17T01:31:35.965Z,101336.75
2022-09-17T01:34:14.379Z,101338.88
2022-09-17T01:36:53.831Z,101339.72
2022-09-17T01:39:32.961Z,101344.75
2022-09-17T01:42:12.808Z,101351.47
2022-09-17T01:44:47.798Z,101356.06
2022-09-17T01:47:21.965Z,101349.81
2022-09-17T01:49:52.530Z,101360.88
2022-09-17T01:52:21.681Z,101358.75
2022-09-17T01:54:54.273Z,101352.53
2022-09-17T01:57:27.934Z,101353.59
2022-09-17T02:00:01.063Z,101350.88
2022-09-17T02:02:34.054Z,101359.00
2022-09-17T02:05:06.175Z,101352.75
2022-09-17T02:07:42.312Z,101360.03
2022-09-17T02:10:13.686Z,101349.44
2022-09-17T02:12:46.510Z,101357.53
2022-09-17T02:15:21.081Z,101359.44
2022-09-17T02:17:54.757Z,101355.69
2022-09-17T02:20:30.918Z,101348.59
2022-09-17T02:23:03.731Z,101356.72
2022-09-17T02:25:37.818Z,101352.13
2022-09-17T02:28:14.275Z,101351.31
2022-09-17T02:30:42.310Z,101355.69
2022-09-17T02:33:15.026Z,101355.69
2022-09-17T02:35:43.769Z,101353.00
2022-09-17T02:38:11.814Z,101347.66
2022-09-17T02:40:48.530Z,101368.59
2022-09-17T02:43:24.732Z,101361.31
2022-09-17T02:46:08.365Z,101368.38
2022-09-17T02:49:05.979Z,101369.66
2022-09-17T02:51:42.353Z,101371.53
2022-09-17T02:54:23.808Z,101372.34
2022-09-17T02:57:02.499Z,101370.72
2022-09-17T02:59:35.412Z,101365.78
2022-09-17T03:02:10.092Z,101368.84
2022-09-17T03:04:42.432Z,101378.81
2022-09-17T03:07:12.191Z,101374.72
2022-09-17T03:09:40.786Z,101369.78
2022-09-17T03:12:08.727Z,101370.59
2022-09-17T03:14:36.441Z,101376.00
2022-09-17T03:17:04.790Z,101369.78
2022-09-17T03:19:32.707Z,101379.53
2022-09-17T03:22:01.708Z,101374.13
2022-09-17T03:24:29.330Z,101376.81
2022-09-17T03:26:56.998Z,101373.28
2022-09-17T03:29:24.734Z,101365.19
2022-09-17T03:31:52.362Z,101367.53
2022-09-17T03:34:20.966Z,101372.69
2022-09-17T03:36:48.582Z,101366.47
2022-09-17T03:39:17.563Z,101359.19
2022-09-17T03:41:45.189Z,101368.34
2022-09-17T03:44:12.900Z,101362.13
2022-09-17T03:46:40.619Z,101371.06
2022-09-17T03:49:09.050Z,101362.34
2022-09-17T03:51:36.701Z,101367.16
2022-09-17T03:54:04.598Z,101369.06
2022-09-17T03:56:34.258Z,101376.94
2022-09-17T03:59:02.496Z,101378.00
2022-09-17T04:01:30.868Z,101374.47
2022-09-17T04:03:58.580Z,101380.69
2022-09-17T04:06:26.311Z,101371.75
2022-09-17T04:08:54.061Z,101371.75
2022-09-17T04:11:21.787Z,101376.56
2022-09-17T04:13:50.870Z,101380.94
2022-09-17T04:16:18.689Z,101386.34
2022-09-17T04:18:46.327Z,101388.22
2022-09-17T04:21:14.163Z,101387.84
2022-09-17T04:23:41.789Z,101387.38
2022-09-17T04:26:09.460Z,101384.31
2022-09-17T04:28:37.103Z,101386.22
2022-09-17T04:31:06.167Z,101389.72
2022-09-17T04:33:33.892Z,101390.78
2022-09-17T04:36:01.538Z,101387.25
2022-09-17T04:38:29.219Z,101385.38
2022-09-17T04:40:57.313Z,101385.38
2022-09-17T04:43:24.976Z,101392.66
2022-09-17T04:45:52.646Z,101385.63
2022-09-17T04:48:21.619Z,101390.44
2022-09-17T04:50:49.391Z,101395.25
2022-09-17T04:53:17.234Z,101393.94
2022-09-17T04:55:44.914Z,101412.06
2022-09-17T04:58:12.704Z,101420.03
2022-09-17T05:00:42.430Z,101407.56
2022-09-17T05:03:10.221Z,101406.75
2022-09-17T05:05:39.223Z,101399.69
2022-09-17T05:08:08.365Z,101400.97
2022-09-17T05:10:36.058Z,101398.28
2022-09-17T05:13:04.810Z,101399.56
2022-09-17T05:15:32.459Z,101400.84
2022-09-17T05:18:00.108Z,101410.84
2022-09-17T05:20:27.814Z,101410.84
2022-09-17T05:22:56.989Z,101409.56
2022-09-17T05:25:24.878Z,101417.44
2022-09-17T05:27:53.370Z,101417.19
2022-09-17T05:30:21.350Z,101423.44
2022-09-17T05:32:49.685Z,101419.91
2022-09-17T05:35:17.632Z,101425.75
2022-09-17T05:37:45.282Z,101418.47
2022-09-17T05:40:14.363Z,101432.59
2022-09-17T05:42:42.023Z,101434.47
2022-09-17T05:45:10.207Z,101432.81
2022-09-17T05:47:37.836Z,101432.81
2022-09-17T05:50:06.256Z,101415.28
2022-09-17T05:52:33.960Z,101426.00
2022-09-17T05:55:01.596Z,101432.22
2022-09-17T05:57:31.350Z,101436.56
2022-09-17T05:59:59.023Z,101432.22
2022-09-17T06:02:26.625Z,101438.47
2022-09-17T06:04:54.333Z,101440.34
2022-09-17T06:07:21.974Z,101445.97
2022-09-17T06:09:49.613Z,101452.19
2022-09-17T06:12:17.250Z,101462.19
2022-09-17T06:14:46.330Z,101471.34
2022-09-17T06:17:13.995Z,101463.09
2022-09-17T06:19:41.676Z,101463.63
2022-09-17T06:22:09.390Z,101468.94
2022-09-17T06:24:37.015Z,101479.97
2022-09-17T06:27:05.059Z,101480.19
2022-09-17T06:29:32.719Z,101479.16
2022-09-17T06:32:02.714Z,101473.75
2022-09-17T06:34:30.346Z,101456.13
2022-09-17T06:36:57.950Z,101474.03
2022-09-17T06:39:25.620Z,101459.91
2022-09-17T06:41:53.251Z,101463.75
2022-09-17T06:44:20.877Z,101460.78
2022-09-17T06:46:50.990Z,101470.38
2022-09-17T06:49:20.190Z,101457.25
2022-09-17T06:51:47.826Z,101464.22
2022-09-17T06:54:15.483Z,101455.66
2022-09-17T06:56:43.192Z,101465.41
2022-09-17T06:59:10.821Z,101458.34
2022-09-17T07:01:38.522Z,101462.34
2022-09-17T07:04:06.592Z,101452.00
2022-09-17T07:06:35.706Z,101457.75
2022-09-17T07:09:05.195Z,101458.13
2022-09-17T07:11:35.514Z,101454.75
2022-09-17T07:14:04.479Z,101457.81
2022-09-17T07:16:32.626Z,101463.78
2022-09-17T07:19:01.047Z,101465.22
2022-09-17T07:21:28.652Z,101473.31
2022-09-17T07:23:57.644Z,101467.31
2022-09-17T07:26:25.479Z,101470.00
2022-09-17T07:28:53.134Z,101470.59
2022-09-17T07:31:20.823Z,101472.25
2022-09-17T07:33:48.493Z,101468.28
2022-09-17T07:36:17.827Z,101471.56
2022-09-17T07:38:45.962Z,101478.63
2022-09-17T07:41:16.447Z,101469.47
2022-09-17T07:43:44.749Z,101476.53
2022-09-17T07:46:18.773Z,101468.41
2022-09-17T07:48:46.751Z,101472.41
2022-09-17T07:51:18.837Z,101468.97
2022-09-17T07:53:47.722Z,101462.63
2022-09-17T07:56:16.800Z,101473.66
2022-09-17T07:58:44.483Z,101472.38
2022-09-17T08:01:15.361Z,101472.13
2022-09-17T08:03:44.193Z,101470.25
2022-09-17T08:06:13.656Z,101466.72
2022-09-17T08:08:42.272Z,101467.31
2022-09-17T08:11:11.969Z,101473.53
2022-09-17T08:13:41.643Z,101477.91
2022-09-17T08:16:13.242Z,101473.09
2022-09-17T08:18:41.546Z,101487.41
2022-09-17T08:21:12.056Z,101478.25
2022-09-17T08:23:41.271Z,101476.97
2022-09-17T08:26:13.111Z,101469.91
2022-09-17T08:28:47.773Z,101474.41
2022-09-17T08:31:17.005Z,101478.31
2022-09-17T08:33:44.731Z,101478.31
2022-09-17T08:36:13.954Z,101475.38
2022-09-17T08:38:41.837Z,101472.06
2022-09-17T08:41:21.890Z,101483.72
2022-09-17T08:43:59.978Z,101488.28
2022-09-17T08:46:28.543Z,101474.78
2022-09-17T08:49:06.690Z,101479.34
2022-09-17T08:51:43.474Z,101483.72
2022-09-17T08:54:15.591Z,101489.94
2022-09-17T08:56:44.671Z,101479.97
2022-09-17T08:59:21.693Z,101485.13
2022-09-17T09:01:55.163Z,101490.31
2022-09-17T09:04:40.542Z,101484.69
2022-09-17T09:07:09.436Z,101487.38
2022-09-17T09:09:39.110Z,101484.69
2022-09-17T09:12:08.824Z,101492.78
2022-09-17T09:14:40.480Z,101489.03
2022-09-17T09:17:09.867Z,101483.63
2022-09-17T09:19:43.086Z,101487.75
2022-09-17T09:22:16.294Z,101491.03
2022-09-17T09:24:46.777Z,101490.72
2022-09-17T09:27:17.914Z,101495.53
2022-09-17T09:29:56.740Z,101491.19
2022-09-17T09:32:33.287Z,101484.72
2022-09-17T09:35:03.446Z,101485.78
2022-09-17T09:37:32.609Z,101494.69
2022-09-17T09:40:04.197Z,101486.38
2022-09-17T09:42:33.195Z,101483.66
2022-09-17T09:45:05.567Z,101489.88
2022-09-17T09:47:42.789Z,101482.28
2022-09-17T09:50:19.633Z,101482.28
2022-09-17T09:52:52.675Z,101487.22
2022-09-17T09:55:33.899Z,101484.75
2022-09-17T09:58:06.740Z,101475.13
2022-09-17T10:00:38.025Z,101473.84
2022-09-17T10:03:10.969Z,101476.34
2022-09-17T10:05:38.447Z,101481.06
2022-09-17T10:08:12.019Z,101477.88
2022-09-17T10:10:54.545Z,101504.34
2022-09-17T10:13:22.103Z,101500.47
2022-09-17T10:15:50.968Z,101493.06
2022-09-17T10:18:19.794Z,101498.94
2022-09-17T10:20:51.180Z,101484.81
2022-09-17T10:23:18.837Z,101498.56
2022-09-17T10:25:46.366Z,101495.84
2022-09-17T10:28:26.275Z,101503.16
2022-09-17T10:30:59.298Z,101496.09
2022-09-17T10:33:28.143Z,101487.75
2022-09-17T10:35:59.954Z,101493.97
2022-09-17T10:38:28.736Z,101480.47
2022-09-17T10:41:08.861Z,101483.75
2022-09-17T10:43:36.286Z,101480.81
2022-09-17T10:46:05.292Z,101476.81
2022-09-17T10:48:34.465Z,101481.19
2022-09-17T10:51:03.508Z,101490.13
2022-09-17T10:53:30.998Z,101497.19
2022-09-17T10:56:11.105Z,101501.53
2022-09-17T10:58:48.245Z,101502.34
2022-09-17T11:01:25.529Z,101488.22
2022-09-17T11:04:00.472Z,101490.13
2022-09-17T11:06:48.740Z,101489.88
2022-09-17T11:09:21.244Z,101486.34
2022-09-17T11:11:55.972Z,101483.41
2022-09-17T11:14:35.964Z,101476.34
2022-09-17T11:17:07.595Z,101489.66
2022-09-17T11:19:39.422Z,101478.00
2022-09-17T11:22:13.429Z,101482.34
2022-09-17T11:24:54.609Z,101487.78
2022-09-17T11:27:35.315Z,101481.31
2022-09-17T11:30:10.676Z,101478.59
2022-09-17T11:32:53.342Z,101480.25
2022-09-17T11:35:22.900Z,101477.31
2022-09-17T11:37:57.708Z,101480.59
2022-09-17T11:40:38.779Z,101477.06
2022-09-17T11:43:13.132Z,101479.78
2022-09-17T11:45:42.498Z,101486.84
2022-09-17T11:48:13.475Z,101476.03
2022-09-17T11:50:42.882Z,101474.72
2022-09-17T11:53:16.042Z,101472.38
2022-09-17T11:55:47.483Z,101482.16
2022-09-17T11:58:16.860Z,101487.31
2022-09-17T12:00:46.779Z,101481.69
2022-09-17T12:03:20.143Z,101489.09
2022-09-17T12:05:49.192Z,101490.75
2022-09-17T12:08:19.274Z,101490.03
2022-09-17T12:10:50.390Z,101480.03
2022-09-17T12:13:23.010Z,101475.22
2022-09-17T12:15:53.827Z,101472.50
2022-09-17T12:18:32.720Z,101469.81
2022-09-17T12:21:02.561Z,101470.63
2022-09-17T12:23:35.934Z,101466.88
2022-09-17T12:26:09.137Z,101469.56
2022-09-17T12:28:40.549Z,101468.50
2022-09-17T12:31:11.969Z,101462.88
2022-09-17T12:33:43.534Z,101447.69
2022-09-17T12:36:28.942Z,101456.41
2022-09-17T12:39:06.606Z,101446.16
2022-09-17T12:41:38.643Z,101447.56
2022-09-17T12:44:14.288Z,101446.28
2022-09-17T12:46:51.027Z,101450.16
2022-09-17T12:49:29.489Z,101444.25
2022-09-17T12:51:59.042Z,101435.09
2022-09-17T12:54:44.473Z,101442.50
2022-09-17T12:57:17.755Z,101416.81
2022-09-17T12:59:50.755Z,101425.06
2022-09-17T13:02:20.192Z,101414.81
2022-09-17T13:05:02.278Z,101413.28
2022-09-17T13:07:45.993Z,101418.22
2022-09-17T13:10:23.138Z,101406.91
2022-09-17T13:12:56.441Z,101407.25
2022-09-17T13:15:38.058Z,101411.38
2022-09-17T13:18:27.435Z,101419.84
2022-09-17T13:21:05.492Z,101412.44
2022-09-17T13:23:34.278Z,101395.59
2022-09-17T13:26:05.209Z,101407.00
2022-09-17T13:28:47.276Z,101407.50
2022-09-17T13:31:21.228Z,101403.03
2022-09-17T13:34:06.429Z,101415.41
2022-09-17T13:36:51.777Z,101409.63
2022-09-17T13:39:34.105Z,101422.84
2022-09-17T13:42:08.157Z,101416.59
2022-09-17T13:44:36.357Z,101403.88
2022-09-17T13:47:12.283Z,101408.56
2022-09-17T13:49:44.863Z,101403.75
2022-09-17T13:52:12.572Z,101411.41
2022-09-17T13:54:40.302Z,101406.22
2022-09-17T13:57:14.950Z,101405.16
2022-09-17T13:59:54.119Z,101397.38
2022-09-17T14:02:33.175Z,101406.91
2022-09-17T14:05:19.566Z,101404.78
2022-09-17T14:07:49.056Z,101408.66
2022-09-17T14:10:35.326Z,101395.59
2022-09-17T14:13:17.677Z,101405.59
2022-09-17T14:16:01.718Z,101431.63
2022-09-17T14:18:36.490Z,101417.84
2022-09-17T14:21:07.951Z,101415.63
2022-09-17T14:23:36.442Z,101412.91
2022-09-17T14:26:09.234Z,101425.50
2022-09-17T14:28:42.469Z,101422.19
2022-09-17T14:31:17.973Z,101428.91
2022-09-17T14:33:46.163Z,101428.91
2022-09-17T14:36:19.122Z,101429.97
2022-09-17T14:38:47.953Z,101425.72
2022-09-17T14:41:21.870Z,101424.53
2022-09-17T14:43:51.213Z,101423.38
2022-09-17T14:46:22.504Z,101446.34
2022-09-17T14:48:50.485Z,101464.22
2022-09-17T14:51:23.289Z,101494.50
2022-09-17T14:54:07.326Z,101478.97
2022-09-17T14:56:36.149Z,101458.84
2022-09-17T14:59:03.776Z,101460.38
2022-09-17T15:01:32.684Z,101457.06
2022-09-17T15:04:21.515Z,101456.25
2022-09-17T15:06:49.242Z,101452.72
2022-09-17T15:09:17.689Z,101452.25
2022-09-17T15:11:47.978Z,101449.31
2022-09-17T15:14:18.612Z,101442.25
2022-09-17T15:16:51.495Z,101447.66
2022-09-17T15:19:23.080Z,101450.38
2022-09-17T15:21:55.038Z,101448.13
2022-09-17T15:24:27.676Z,101453.91
2022-09-17T15:26:57.562Z,101444.38
2022-09-17T15:29:26.495Z,101448.72
2022-09-17T15:31:55.571Z,101443.53
2022-09-17T15:34:23.511Z,101448.38
2022-09-17T15:37:07.328Z,101444.84
2022-09-17T15:39:40.318Z,101442.38
2022-09-17T15:42:18.077Z,101436.72
2022-09-17T15:44:45.573Z,101437.31
2022-09-17T15:47:31.475Z,101443.53
2022-09-17T15:50:12.882Z,101449.66
2022-09-17T15:52:40.392Z,101450.13
2022-09-17T15:55:29.322Z,101448.13
2022-09-17T15:57:57.245Z,101447.31
2022-09-17T16:00:24.878Z,101452.97
2022-09-17T16:02:52.798Z,101452.38
2022-09-17T16:05:38.358Z,101443.44
2022-09-17T16:08:21.055Z,101455.91
2022-09-17T16:10:48.540Z,101447.78
2022-09-17T16:13:15.994Z,101444.00
2022-09-17T16:15:43.783Z,101459.44
2022-09-17T16:18:14.836Z,101455.66
2022-09-17T16:20:42.353Z,101465.69
2022-09-17T16:23:10.173Z,101466.97
2022-09-17T16:25:40.257Z,101458.25
2022-09-17T16:28:10.707Z,101469.34
2022-09-17T16:30:38.549Z,101467.91
2022-09-17T16:33:06.853Z,101463.56
2022-09-17T16:35:34.459Z,101469.81
2022-09-17T16:38:02.224Z,101467.09
2022-09-17T16:40:29.747Z,101478.97
2022-09-17T16:43:00.611Z,101470.03
2022-09-17T16:45:29.115Z,101467.34
2022-09-17T16:47:56.834Z,101468.38
2022-09-17T16:50:24.355Z,101477.34
2022-09-17T16:52:52.158Z,101472.97
2022-09-17T16:55:19.990Z,101479.81
2022-09-17T16:57:47.762Z,101485.47
2022-09-17T17:00:18.950Z,101485.47
2022-09-17T17:02:52.272Z,101482.16
2022-09-17T17:05:19.887Z,101488.41
2022-09-17T17:07:47.357Z,101491.09
2022-09-17T17:10:14.835Z,101491.09
2022-09-17T17:12:42.454Z,101493.00
2022-09-17T17:15:10.325Z,101485.94
2022-09-17T17:17:39.208Z,101493.22
2022-09-17T17:20:08.802Z,101504.06
2022-09-17T17:22:36.959Z,101492.53
2022-09-17T17:25:05.529Z,101501.94
2022-09-17T17:27:33.122Z,101504.06
2022-09-17T17:30:01.589Z,101513.00
2022-09-17T17:32:29.109Z,101506.75
2022-09-17T17:34:58.215Z,101513.00
2022-09-17T17:37:26.715Z,101517.59
2022-09-17T17:39:54.729Z,101512.75
2022-09-17T17:42:22.530Z,101525.59
2022-09-17T17:44:49.970Z,101530.19
2022-09-17T17:47:17.437Z,101536.19
2022-09-17T17:49:45.082Z,101527.00
2022-09-17T17:52:13.875Z,101531.59
2022-09-17T17:54:41.335Z,101532.66
2022-09-17T17:57:08.846Z,101531.38
2022-09-17T17:59:36.278Z,101524.88
2022-09-17T18:02:03.848Z,101531.38
2022-09-17T18:04:31.417Z,101527.84
2022-09-17T18:06:59.103Z,101530.31
2022-09-17T18:09:27.961Z,101535.25
2022-09-17T18:11:55.450Z,101542.91
2022-09-17T18:14:22.902Z,101548.09
2022-09-17T18:16:50.538Z,101547.25
2022-09-17T18:19:18.007Z,101552.66
2022-09-17T18:21:45.745Z,101551.84
2022-09-17T18:24:13.215Z,101552.66
2022-09-17T18:26:42.069Z,101555.38
2022-09-17T18:29:09.589Z,101551.03
2022-09-17T18:31:37.879Z,101552.91
2022-09-17T18:34:06.488Z,101559.97
2022-09-17T18:36:34.758Z,101555.38
2022-09-17T18:39:32.869Z,101569.97
2022-09-17T18:41:53.562Z,101565.84
2022-09-17T18:44:21.848Z,101572.09
2022-09-17T18:46:51.240Z,101573.16
2022-09-17T18:49:18.890Z,101577.75
2022-09-17T18:51:46.503Z,101581.50
2022-09-17T18:54:14.364Z,101590.09
2022-09-17T18:56:42.113Z,101590.31
2022-09-17T18:59:11.643Z,101596.56
2022-09-17T19:01:39.457Z,101593.03
2022-09-17T19:04:07.635Z,101597.63
2022-09-17T19:06:35.650Z,101606.78
2022-09-17T19:09:03.933Z,101604.09
2022-09-17T19:11:31.422Z,101608.69
2022-09-17T19:13:59.013Z,101612.44
2022-09-17T19:16:27.865Z,101614.56
2022-09-17T19:18:55.355Z,101607.50
2022-09-17T19:21:22.815Z,101611.03
2022-09-17T19:23:51.393Z,101609.38
2022-09-17T19:26:19.854Z,101603.97
2022-09-17T19:28:47.541Z,101582.53
2022-09-17T19:31:16.047Z,101580.66
2022-09-17T19:33:46.626Z,101586.44
2022-09-17T19:36:15.192Z,101584.56
2022-09-17T19:38:42.763Z,101587.50
2022-09-17T19:41:12.014Z,101588.53
2022-09-17T19:43:39.670Z,101581.47
2022-09-17T19:46:08.254Z,101584.41
2022-09-17T19:48:36.459Z,101594.44
2022-09-17T19:51:06.330Z,101602.78
2022-09-17T19:53:34.044Z,101594.66
2022-09-17T19:56:01.575Z,101595.72
2022-09-17T19:58:29.082Z,101606.53
2022-09-17T20:00:59.150Z,101601.94
2022-09-17T20:03:26.942Z,101596.78
2022-09-17T20:05:59.766Z,101599.47
2022-09-17T20:08:28.737Z,101611.13
2022-09-17T20:10:56.189Z,101612.19
2022-09-17T20:13:25.323Z,101614.88
2022-09-17T20:15:52.862Z,101614.06
2022-09-17T20:18:23.479Z,101609.72
2022-09-17T20:20:51.318Z,101615.72
2022-09-17T20:23:18.857Z,101605.94
2022-09-17T20:25:53.248Z,101617.22
2022-09-17T20:28:20.691Z,101623.69
2022-09-17T20:30:48.170Z,101613.69
2022-09-17T20:33:15.749Z,101606.63
2022-09-17T20:35:43.209Z,101610.41
2022-09-17T20:41:03.039Z,101612.50
2022-09-17T20:43:33.489Z,101609.81
2022-09-17T20:46:01.985Z,101600.03
2022-09-17T20:48:30.392Z,101605.22
2022-09-17T20:50:58.848Z,101609.81
2022-09-17T20:53:26.317Z,101605.22
2022-09-17T20:55:57.706Z,101603.56
2022-09-17T20:58:27.521Z,101608.97
2022-09-17T21:00:55.105Z,101607.94
2022-09-17T21:03:23.109Z,101610.63
2022-09-17T21:05:50.579Z,101606.03
2022-09-17T21:08:18.100Z,101607.94
2022-09-17T21:10:45.565Z,101608.97
2022-09-17T21:13:13.038Z,101608.16
2022-09-17T21:15:41.957Z,101610.88
2022-09-17T21:18:09.723Z,101608.97
2022-09-17T21:20:37.514Z,101609.81
2022-09-17T21:23:05.215Z,101616.88
2022-09-17T21:25:32.776Z,101623.09
2022-09-17T21:28:00.555Z,101625.81
2022-09-17T21:30:28.028Z,101610.41
2022-09-17T21:32:56.849Z,101613.09
2022-09-17T21:35:29.850Z,101623.94
2022-09-17T21:37:57.300Z,101613.09
2022-09-17T21:40:24.789Z,101616.63
2022-09-17T21:42:52.266Z,101621.22
2022-09-17T21:45:19.709Z,101615.00
2022-09-17T21:47:47.391Z,101622.88
2022-09-17T21:50:16.392Z,101611.22
2022-09-17T21:52:43.850Z,101623.94
2022-09-17T21:55:12.590Z,101635.59
2022-09-17T21:57:40.052Z,101635.22
2022-09-17T22:00:09.109Z,101636.88
2022-09-17T22:02:36.704Z,101639.34
2022-09-17T22:05:04.303Z,101630.63
2022-09-17T22:07:33.201Z,101633.94
2022-09-17T22:10:00.655Z,101628.75
2022-09-17T22:12:28.096Z,101634.16
2022-09-17T22:14:55.595Z,101627.09
2022-09-17T22:17:23.042Z,101630.84
2022-09-17T22:19:50.477Z,101631.69
2022-09-17T22:22:17.936Z,101622.75
2022-09-17T22:24:46.738Z,101624.63
2022-09-17T22:27:14.206Z,101624.84
2022-09-17T22:29:41.662Z,101619.22
2022-09-17T22:32:09.101Z,101620.28
2022-09-17T22:34:36.910Z,101624.03
2022-09-17T22:37:06.079Z,101619.66
2022-09-17T22:39:33.547Z,101617.78
2022-09-17T22:42:02.523Z,101622.38
2022-09-17T22:44:29.973Z,101618.03
2022-09-17T22:46:57.529Z,101616.38
2022-09-17T22:49:25.057Z,101616.13
2022-09-17T22:51:52.525Z,101613.44
2022-09-17T22:54:20.315Z,101611.78
2022-09-17T22:56:48.525Z,101610.97
2022-09-17T22:59:18.154Z,101609.09
2022-09-17T23:01:45.869Z,101624.25
2022-09-17T23:04:13.374Z,101612.59
2022-09-17T23:06:41.935Z,101613.44
2022-09-17T23:09:09.512Z,101606.97
2022-09-17T23:11:38.186Z,101602.38
2022-09-17T23:14:06.778Z,101592.38
2022-09-17T23:16:36.554Z,101598.03
2022-09-17T23:19:04.770Z,101591.56
2022-09-17T23:21:32.559Z,101597.19
2022-09-17T23:24:00.165Z,101596.38
2022-09-17T23:26:28.213Z,101603.44
2022-09-17T23:28:57.401Z,101595.56
2022-09-17T23:31:27.486Z,101596.38
2022-09-17T23:33:57.486Z,101588.25
2022-09-17T23:36:26.287Z,101592.84
2022-09-17T23:38:54.722Z,101586.38
2022-09-17T23:41:22.974Z,101586.59
2022-09-17T23:43:51.701Z,101587.44
2022-09-17T23:46:19.436Z,101580.38
2022-09-17T23:48:47.198Z,101583.66
2022-09-17T23:51:16.637Z,101583.91
2022-09-17T23:53:44.519Z,101590.97
2022-09-17T23:56:12.887Z,101583.91
2022-09-17T23:58:40.781Z,101583.66
